Weather Cam  Weather Cam


Weather Cam 2  Weather Cam 2


Thunder radar more information blitzortung!


Rain radar more information rain snow radar


Visit our other weather sites:

Template documentation
and downloads

And another site


You find our weather info also at:

WeatherCloud

Weather Underground

Northwest Weather Network

AWEKAS

Citizen Weather Observer Program (CWOP)



There are no active watches, warnings or advisories

Nearby METAR Reports

   
KCOE - Coeur d'Alene, ID
Updated: Nov 19 2018 11:56 pm
Clear  
Clear  
   Wind: NE 10.4 mph
Wind: NE 10.4 mph
Temperature: 28.4°F
Wind Chill: 19.4°F
Dew Point: 26.6°F
Humidity: 93%
Barometer: 30.23 inHg
Clouds: Clear
Visibility: 10 mi
Cloud details: Clear m
KCOE 200756Z AUTO 05009KT 10SM CLR M02/M03 A3023 RMK AO2 SLP274 T10171033 400611044 FZRANO
KGEG - Spokane, WA
Updated: Nov 19 2018 11:53 pm
Clear  
Clear  
   Wind: NE 6.9 mph
Wind: NE 6.9 mph
Temperature: 30.2°F
Wind Chill: 23°F
Dew Point: 24.8°F
Humidity: 80%
Barometer: 30.22 inHg
Clouds: Clear
Visibility: 10 mi
Cloud details: Clear m
KGEG 200753Z 04006KT 10SM CLR M01/M04 A3022 RMK AO2 SLP251 T10111039 400501039
KSFF - Spokane Felts
Updated: Nov 19 2018 11:53 pm
Clear  
Clear  
   Wind: Calm
Wind: Calm
Temperature: 28.4°F
Dew Point: 26.6°F
Humidity: 93%
Barometer: 30.24 inHg
Clouds: Clear
Visibility: 7 mi
Cloud details: Clear m
KSFF 200753Z AUTO 00000KT 7SM CLR M02/M03 A3024 RMK AO2 SLP255 I1000 T10171028 400721033
KSKA - Fairchild AFB
Updated: Nov 19 2018 11:58 pm
Clear  
Clear  
   Wind: NE 5.8 mph
Wind: NE 5.8 mph
Temperature: 28.4°F
Wind Chill: 21.2°F
Dew Point: 28.4°F
Humidity: 100%
Barometer: 30.2 inHg
Clouds: Clear
Visibility: 10 mi
Cloud details: Clear m
KSKA 200758Z 05005KT 10SM CLR M02/M02 A3020 RMK AO2A SLP253 T10201021 400481050 $
KSZT - Sandpoint, ID
Updated: Nov 20 2018 12:15 am
Clear  
Clear  
   Wind: Calm
Wind: Calm
Temperature: 23°F
Dew Point: 23°F
Humidity: 100%
Barometer: 30.26 inHg
Clouds: Clear
Visibility: 10 mi
Cloud details: Clear m
KSZT 200815Z AUTO 00000KT 10SM CLR M05/M05 A3026 RMK AO2
KSEA - Sea-Tac, WA
Updated: Nov 20 2018 12:17 am
Mist, Partly Cloudy  
Mist, Partly Cloudy  
   Wind: Calm
Wind: Calm
Temperature: 39.2°F
Dew Point: 37.4°F
Humidity: 93%
Barometer: 30.04 inHg
Clouds: Partly Cloudy
Visibility: 3 mi
Cloud details: Partly Cloudy 31 m
KSEA 200817Z 00000KT 3/4SM R16L/0800V4500FT BR SCT001 04/03 A3004 RMK AO2 T00440028

Script developed by  Saratoga-weather.org Adapted for the template by  Weerstation Leuven